sensor_id;sensor_type;location;lat;lon;timestamp;P1;P2;P0
77411;PMS7003;66484;49.968;19.140;2023-05-02T00:02:21;55.75;43.75;30.25
77411;PMS7003;66484;49.968;19.140;2023-05-02T00:04:48;53.50;42.75;29.75
77411;PMS7003;66484;49.968;19.140;2023-05-02T00:07:16;49.50;40.25;27.00
77411;PMS7003;66484;49.968;19.140;2023-05-02T00:09:43;48.25;40.75;26.25
77411;PMS7003;66484;49.968;19.140;2023-05-02T00:12:10;51.00;40.75;26.75
77411;PMS7003;66484;49.968;19.140;2023-05-02T00:14:37;43.00;36.75;25.25
77411;PMS7003;66484;49.968;19.140;2023-05-02T00:17:05;46.50;38.00;26.25
77411;PMS7003;66484;49.968;19.140;2023-05-02T00:19:36;40.75;34.25;23.50
77411;PMS7003;66484;49.968;19.140;2023-05-02T00:22:04;35.75;34.00;24.50
77411;PMS7003;66484;49.968;19.140;2023-05-02T00:24:31;31.25;27.25;22.75
77411;PMS7003;66484;49.968;19.140;2023-05-02T00:26:59;33.50;29.75;21.75
77411;PMS7003;66484;49.968;19.140;2023-05-02T00:29:26;33.75;31.25;22.75
77411;PMS7003;66484;49.968;19.140;2023-05-02T00:31:53;31.00;26.00;20.25
77411;PMS7003;66484;49.968;19.140;2023-05-02T00:34:20;28.00;26.25;20.50
77411;PMS7003;66484;49.968;19.140;2023-05-02T00:36:48;26.75;26.00;18.00
77411;PMS7003;66484;49.968;19.140;2023-05-02T00:39:15;28.50;26.00;19.50
77411;PMS7003;66484;49.968;19.140;2023-05-02T00:41:43;25.25;25.25;18.50
77411;PMS7003;66484;49.968;19.140;2023-05-02T00:44:09;25.00;25.00;19.50
77411;PMS7003;66484;49.968;19.140;2023-05-02T00:46:37;31.75;26.50;19.00
77411;PMS7003;66484;49.968;19.140;2023-05-02T00:49:04;24.25;24.25;18.00
77411;PMS7003;66484;49.968;19.140;2023-05-02T00:51:32;26.25;22.25;17.25
77411;PMS7003;66484;49.968;19.140;2023-05-02T00:53:59;21.75;17.75;13.50
77411;PMS7003;66484;49.968;19.140;2023-05-02T00:56:27;20.50;19.50;14.75
77411;PMS7003;66484;49.968;19.140;2023-05-02T00:58:54;20.50;18.00;14.25
77411;PMS7003;66484;49.968;19.140;2023-05-02T01:04:27;18.25;18.25;14.75
77411;PMS7003;66484;49.968;19.140;2023-05-02T01:15:10;24.75;24.75;19.25
77411;PMS7003;66484;49.968;19.140;2023-05-02T01:17:40;30.50;24.75;18.75
77411;PMS7003;66484;49.968;19.140;2023-05-02T01:20:13;50.25;41.50;27.75
77411;PMS7003;66484;49.968;19.140;2023-05-02T01:22:44;54.75;43.00;27.25
77411;PMS7003;66484;49.968;19.140;2023-05-02T01:28:20;42.25;36.00;25.00
77411;PMS7003;66484;49.968;19.140;2023-05-02T01:30:57;42.75;37.00;24.25
77411;PMS7003;66484;49.968;19.140;2023-05-02T01:33:25;32.50;29.00;22.00
77411;PMS7003;66484;49.968;19.140;2023-05-02T01:35:54;31.00;26.00;19.25
77411;PMS7003;66484;49.968;19.140;2023-05-02T01:38:22;26.00;25.00;17.50
77411;PMS7003;66484;49.968;19.140;2023-05-02T01:40:51;27.25;25.50;18.50
77411;PMS7003;66484;49.968;19.140;2023-05-02T01:43:19;25.75;22.25;16.75
77411;PMS7003;66484;49.968;19.140;2023-05-02T01:45:47;29.25;26.50;19.25
77411;PMS7003;66484;49.968;19.140;2023-05-02T01:48:17;33.00;28.75;20.00
77411;PMS7003;66484;49.968;19.140;2023-05-02T01:50:44;12.00;12.00;7.00
77411;PMS7003;66484;49.968;19.140;2023-05-02T01:53:14;37.00;32.25;22.75
77411;PMS7003;66484;49.968;19.140;2023-05-02T01:55:42;32.75;27.50;20.50
77411;PMS7003;66484;49.968;19.140;2023-05-02T01:58:10;31.50;27.50;22.00
77411;PMS7003;66484;49.968;19.140;2023-05-02T02:00:38;27.50;27.50;21.00
77411;PMS7003;66484;49.968;19.140;2023-05-02T02:03:07;33.25;29.25;20.25
77411;PMS7003;66484;49.968;19.140;2023-05-02T02:05:35;27.00;25.75;19.75
77411;PMS7003;66484;49.968;19.140;2023-05-02T02:08:03;26.25;24.75;17.00
77411;PMS7003;66484;49.968;19.140;2023-05-02T02:10:30;31.00;28.00;19.50
77411;PMS7003;66484;49.968;19.140;2023-05-02T02:13:05;24.50;21.50;16.50
77411;PMS7003;66484;49.968;19.140;2023-05-02T02:15:37;36.50;32.00;21.00
77411;PMS7003;66484;49.968;19.140;2023-05-02T02:18:10;31.50;27.50;19.75
77411;PMS7003;66484;49.968;19.140;2023-05-02T02:20:39;32.50;30.50;20.00
77411;PMS7003;66484;49.968;19.140;2023-05-02T02:23:09;38.25;32.25;20.75
77411;PMS7003;66484;49.968;19.140;2023-05-02T02:25:36;26.00;24.50;18.50
77411;PMS7003;66484;49.968;19.140;2023-05-02T02:28:05;27.75;23.75;18.50
77411;PMS7003;66484;49.968;19.140;2023-05-02T02:30:33;15.25;11.50;9.75
77411;PMS7003;66484;49.968;19.140;2023-05-02T02:33:00;8.50;5.75;2.25
77411;PMS7003;66484;49.968;19.140;2023-05-02T02:35:32;24.75;19.75;15.75
77411;PMS7003;66484;49.968;19.140;2023-05-02T02:43:43;24.75;22.75;18.25
77411;PMS7003;66484;49.968;19.140;2023-05-02T02:57:03;31.00;29.75;22.00
77411;PMS7003;66484;49.968;19.140;2023-05-02T02:59:37;42.75;36.75;25.25
77411;PMS7003;66484;49.968;19.140;2023-05-02T03:02:08;32.00;31.25;22.25
77411;PMS7003;66484;49.968;19.140;2023-05-02T03:04:40;32.25;28.75;22.50
77411;PMS7003;66484;49.968;19.140;2023-05-02T03:07:07;39.75;32.50;22.50
77411;PMS7003;66484;49.968;19.140;2023-05-02T03:09:42;50.00;38.75;26.00
77411;PMS7003;66484;49.968;19.140;2023-05-02T03:12:10;30.50;28.00;20.25
77411;PMS7003;66484;49.968;19.140;2023-05-02T03:14:37;45.25;36.75;25.75
77411;PMS7003;66484;49.968;19.140;2023-05-02T03:17:05;41.50;33.00;23.75
77411;PMS7003;66484;49.968;19.140;2023-05-02T03:19:36;39.00;34.75;23.25
77411;PMS7003;66484;49.968;19.140;2023-05-02T03:22:04;28.25;25.75;20.25
77411;PMS7003;66484;49.968;19.140;2023-05-02T03:24:31;24.75;24.75;19.00
77411;PMS7003;66484;49.968;19.140;2023-05-02T03:26:58;30.50;28.00;18.75
77411;PMS7003;66484;49.968;19.140;2023-05-02T03:29:26;34.00;30.00;23.00
77411;PMS7003;66484;49.968;19.140;2023-05-02T03:31:54;27.00;27.00;17.00
77411;PMS7003;66484;49.968;19.140;2023-05-02T03:34:21;16.75;13.75;11.75
77411;PMS7003;66484;49.968;19.140;2023-05-02T03:36:49;18.00;16.75;12.75
77411;PMS7003;66484;49.968;19.140;2023-05-02T03:39:16;12.00;12.00;10.75
77411;PMS7003;66484;49.968;19.140;2023-05-02T03:41:43;11.75;11.00;9.50
77411;PMS7003;66484;49.968;19.140;2023-05-02T03:44:10;12.50;9.75;9.00
77411;PMS7003;66484;49.968;19.140;2023-05-02T03:46:37;11.25;11.25;8.50
77411;PMS7003;66484;49.968;19.140;2023-05-02T03:49:05;9.50;9.50;8.75
77411;PMS7003;66484;49.968;19.140;2023-05-02T03:51:32;10.25;10.25;8.00
77411;PMS7003;66484;49.968;19.140;2023-05-02T03:54:00;12.75;8.75;6.25
77411;PMS7003;66484;49.968;19.140;2023-05-02T03:56:28;10.67;7.33;5.33
77411;PMS7003;66484;49.968;19.140;2023-05-02T03:58:56;9.33;9.00;6.67
77411;PMS7003;66484;49.968;19.140;2023-05-02T04:01:23;10.00;10.00;5.67
77411;PMS7003;66484;49.968;19.140;2023-05-02T04:03:51;7.67;6.00;4.67
77411;PMS7003;66484;49.968;19.140;2023-05-02T04:06:18;11.00;9.33;5.00
77411;PMS7003;66484;49.968;19.140;2023-05-02T04:08:45;5.00;5.00;4.00
77411;PMS7003;66484;49.968;19.140;2023-05-02T04:11:13;5.33;5.33;4.67
77411;PMS7003;66484;49.968;19.140;2023-05-02T04:13:40;4.67;4.00;3.00
77411;PMS7003;66484;49.968;19.140;2023-05-02T04:16:08;10.00;9.00;6.67
77411;PMS7003;66484;49.968;19.140;2023-05-02T04:18:35;8.33;5.00;4.67
77411;PMS7003;66484;49.968;19.140;2023-05-02T04:21:02;5.00;5.00;4.00
77411;PMS7003;66484;49.968;19.140;2023-05-02T04:23:29;5.00;4.00;3.00
77411;PMS7003;66484;49.968;19.140;2023-05-02T04:25:56;4.67;4.67;4.00
77411;PMS7003;66484;49.968;19.140;2023-05-02T04:28:24;3.33;3.33;3.00
77411;PMS7003;66484;49.968;19.140;2023-05-02T04:30:51;5.00;4.00;3.33
77411;PMS7003;66484;49.968;19.140;2023-05-02T04:33:19;6.33;5.00;3.00
77411;PMS7003;66484;49.968;19.140;2023-05-02T04:35:46;2.00;2.00;2.00
77411;PMS7003;66484;49.968;19.140;2023-05-02T04:38:13;5.33;4.67;3.00
77411;PMS7003;66484;49.968;19.140;2023-05-02T04:40:40;6.67;6.67;5.00
77411;PMS7003;66484;49.968;19.140;2023-05-02T04:43:08;3.67;3.00;2.00
77411;PMS7003;66484;49.968;19.140;2023-05-02T04:45:35;5.00;3.00;2.00
77411;PMS7003;66484;49.968;19.140;2023-05-02T04:48:03;8.33;5.00;4.00
77411;PMS7003;66484;49.968;19.140;2023-05-02T04:50:30;4.00;3.00;2.00
77411;PMS7003;66484;49.968;19.140;2023-05-02T04:52:58;4.00;2.67;2.67
77411;PMS7003;66484;49.968;19.140;2023-05-02T04:55:25;4.00;4.00;3.00
77411;PMS7003;66484;49.968;19.140;2023-05-02T04:57:52;4.33;4.33;2.67
77411;PMS7003;66484;49.968;19.140;2023-05-02T05:00:19;4.00;4.00;4.00
77411;PMS7003;66484;49.968;19.140;2023-05-02T05:02:47;5.33;4.00;3.67
77411;PMS7003;66484;49.968;19.140;2023-05-02T05:05:15;2.33;2.33;2.00
77411;PMS7003;66484;49.968;19.140;2023-05-02T05:07:42;4.00;3.00;3.00
77411;PMS7003;66484;49.968;19.140;2023-05-02T05:10:10;3.33;3.33;3.00
77411;PMS7003;66484;49.968;19.140;2023-05-02T05:12:38;5.67;5.00;3.00
77411;PMS7003;66484;49.968;19.140;2023-05-02T05:15:05;6.00;6.00;5.00
77411;PMS7003;66484;49.968;19.140;2023-05-02T05:17:33;6.00;6.00;5.00
77411;PMS7003;66484;49.968;19.140;2023-05-02T05:20:00;6.67;6.67;5.00
77411;PMS7003;66484;49.968;19.140;2023-05-02T05:22:28;10.00;10.00;8.00
77411;PMS7003;66484;49.968;19.140;2023-05-02T05:24:55;9.67;8.33;5.00
77411;PMS7003;66484;49.968;19.140;2023-05-02T05:27:22;4.67;3.33;2.33
77411;PMS7003;66484;49.968;19.140;2023-05-02T05:29:49;8.00;6.25;3.25
77411;PMS7003;66484;49.968;19.140;2023-05-02T05:32:16;4.25;4.25;4.00
77411;PMS7003;66484;49.968;19.140;2023-05-02T05:34:44;3.00;3.00;3.00
77411;PMS7003;66484;49.968;19.140;2023-05-02T05:37:11;3.50;3.50;3.00
77411;PMS7003;66484;49.968;19.140;2023-05-02T05:39:38;8.00;8.00;5.50
77411;PMS7003;66484;49.968;19.140;2023-05-02T05:42:06;4.75;4.75;3.50
77411;PMS7003;66484;49.968;19.140;2023-05-02T05:44:35;8.75;5.50;4.75
77411;PMS7003;66484;49.968;19.140;2023-05-02T05:47:03;6.75;4.25;3.50
77411;PMS7003;66484;49.968;19.140;2023-05-02T05:49:31;6.75;6.00;2.75
77411;PMS7003;66484;49.968;19.140;2023-05-02T05:51:58;7.00;6.50;5.25
77411;PMS7003;66484;49.968;19.140;2023-05-02T05:54:26;9.50;6.50;5.00
77411;PMS7003;66484;49.968;19.140;2023-05-02T05:56:55;5.25;4.75;3.75
77411;PMS7003;66484;49.968;19.140;2023-05-02T05:59:22;7.50;7.25;5.75
77411;PMS7003;66484;49.968;19.140;2023-05-02T06:01:49;8.75;8.75;6.75
77411;PMS7003;66484;49.968;19.140;2023-05-02T06:04:17;8.50;8.00;6.25
77411;PMS7003;66484;49.968;19.140;2023-05-02T06:06:44;9.50;9.25;7.25
77411;PMS7003;66484;49.968;19.140;2023-05-02T06:09:12;11.50;8.00;6.00
77411;PMS7003;66484;49.968;19.140;2023-05-02T06:11:39;6.00;5.50;4.50
77411;PMS7003;66484;49.968;19.140;2023-05-02T06:14:07;9.25;7.75;6.50
77411;PMS7003;66484;49.968;19.140;2023-05-02T06:16:34;12.25;9.25;7.00
77411;PMS7003;66484;49.968;19.140;2023-05-02T06:19:02;5.75;5.75;4.50
77411;PMS7003;66484;49.968;19.140;2023-05-02T06:21:29;7.00;5.25;4.50
77411;PMS7003;66484;49.968;19.140;2023-05-02T06:23:57;4.50;4.50;4.25
77411;PMS7003;66484;49.968;19.140;2023-05-02T06:26:25;5.75;5.75;4.00
77411;PMS7003;66484;49.968;19.140;2023-05-02T06:28:53;6.25;6.25;5.00
77411;PMS7003;66484;49.968;19.140;2023-05-02T06:31:21;1.00;1.00;0.00
77411;PMS7003;66484;49.968;19.140;2023-05-02T06:33:48;6.25;5.75;4.75
77411;PMS7003;66484;49.968;19.140;2023-05-02T06:36:16;7.00;6.25;6.00
77411;PMS7003;66484;49.968;19.140;2023-05-02T06:38:43;8.00;6.50;4.75
77411;PMS7003;66484;49.968;19.140;2023-05-02T06:41:18;6.25;5.75;4.75
77411;PMS7003;66484;49.968;19.140;2023-05-02T06:43:59;4.50;2.75;2.50
77411;PMS7003;66484;49.968;19.140;2023-05-02T06:46:27;3.00;3.00;3.00
77411;PMS7003;66484;49.968;19.140;2023-05-02T06:48:56;3.75;3.75;3.00
77411;PMS7003;66484;49.968;19.140;2023-05-02T06:51:23;4.75;4.50;3.75
77411;PMS7003;66484;49.968;19.140;2023-05-02T06:53:51;4.00;4.00;3.25
77411;PMS7003;66484;49.968;19.140;2023-05-02T06:56:19;4.00;4.00;3.75
77411;PMS7003;66484;49.968;19.140;2023-05-02T06:58:47;3.75;3.25;3.25
77411;PMS7003;66484;49.968;19.140;2023-05-02T07:01:18;2.75;2.75;2.50
77411;PMS7003;66484;49.968;19.140;2023-05-02T07:03:51;4.00;4.00;3.00
77411;PMS7003;66484;49.968;19.140;2023-05-02T07:06:23;5.50;5.50;3.75
77411;PMS7003;66484;49.968;19.140;2023-05-02T07:09:12;6.50;6.50;6.25
77411;PMS7003;66484;49.968;19.140;2023-05-02T07:11:39;5.75;4.75;3.75
77411;PMS7003;66484;49.968;19.140;2023-05-02T07:14:07;6.25;5.00;3.00
77411;PMS7003;66484;49.968;19.140;2023-05-02T07:16:34;6.50;5.50;4.00
77411;PMS7003;66484;49.968;19.140;2023-05-02T07:19:02;6.50;6.50;5.75
77411;PMS7003;66484;49.968;19.140;2023-05-02T07:21:32;7.25;6.50;4.75
77411;PMS7003;66484;49.968;19.140;2023-05-02T07:23:59;4.25;4.25;4.00
77411;PMS7003;66484;49.968;19.140;2023-05-02T07:26:28;5.50;5.50;5.00
77411;PMS7003;66484;49.968;19.140;2023-05-02T07:28:55;8.50;7.00;5.00
77411;PMS7003;66484;49.968;19.140;2023-05-02T07:31:23;7.50;7.25;6.00
77411;PMS7003;66484;49.968;19.140;2023-05-02T07:33:50;6.25;6.25;5.25
77411;PMS7003;66484;49.968;19.140;2023-05-02T07:36:18;7.00;6.25;5.50
77411;PMS7003;66484;49.968;19.140;2023-05-02T07:38:45;6.25;6.25;5.25
77411;PMS7003;66484;49.968;19.140;2023-05-02T07:41:13;3.50;3.50;2.50
77411;PMS7003;66484;49.968;19.140;2023-05-02T07:43:40;7.75;7.75;5.00
77411;PMS7003;66484;49.968;19.140;2023-05-02T07:46:08;5.25;4.00;3.75
77411;PMS7003;66484;49.968;19.140;2023-05-02T07:48:35;7.50;6.50;4.25
77411;PMS7003;66484;49.968;19.140;2023-05-02T07:51:06;3.00;3.00;2.00
77411;PMS7003;66484;49.968;19.140;2023-05-02T07:53:35;4.75;4.00;3.75
77411;PMS7003;66484;49.968;19.140;2023-05-02T07:56:02;3.75;3.75;3.00
77411;PMS7003;66484;49.968;19.140;2023-05-02T07:58:33;4.25;4.00;3.00
77411;PMS7003;66484;49.968;19.140;2023-05-02T08:01:06;3.75;3.75;3.00
77411;PMS7003;66484;49.968;19.140;2023-05-02T08:03:34;6.50;3.75;3.00
77411;PMS7003;66484;49.968;19.140;2023-05-02T08:06:02;6.25;4.50;3.25
77411;PMS7003;66484;49.968;19.140;2023-05-02T08:08:29;2.00;2.00;2.00
77411;PMS7003;66484;49.968;19.140;2023-05-02T08:10:57;4.00;4.00;3.00
77411;PMS7003;66484;49.968;19.140;2023-05-02T08:13:25;4.50;4.50;4.00
77411;PMS7003;66484;49.968;19.140;2023-05-02T08:15:53;3.25;3.25;3.25
77411;PMS7003;66484;49.968;19.140;2023-05-02T08:18:24;3.00;3.00;2.00
77411;PMS7003;66484;49.968;19.140;2023-05-02T08:20:54;5.50;5.50;5.00
77411;PMS7003;66484;49.968;19.140;2023-05-02T08:23:21;3.00;3.00;3.00
77411;PMS7003;66484;49.968;19.140;2023-05-02T08:25:49;3.75;3.75;2.75
77411;PMS7003;66484;49.968;19.140;2023-05-02T08:28:29;4.75;4.75;3.00
77411;PMS7003;66484;49.968;19.140;2023-05-02T08:31:03;5.00;4.00;3.00
77411;PMS7003;66484;49.968;19.140;2023-05-02T08:33:30;5.75;5.75;4.75
77411;PMS7003;66484;49.968;19.140;2023-05-02T08:35:59;5.75;5.25;4.25
77411;PMS7003;66484;49.968;19.140;2023-05-02T08:38:27;3.50;3.50;3.00
77411;PMS7003;66484;49.968;19.140;2023-05-02T08:40:55;4.50;4.50;3.75
77411;PMS7003;66484;49.968;19.140;2023-05-02T08:43:25;4.50;4.50;4.25
77411;PMS7003;66484;49.968;19.140;2023-05-02T08:46:02;3.00;3.00;2.00
77411;PMS7003;66484;49.968;19.140;2023-05-02T08:48:34;4.50;4.50;4.00
77411;PMS7003;66484;49.968;19.140;2023-05-02T08:51:13;4.75;3.75;3.75
77411;PMS7003;66484;49.968;19.140;2023-05-02T08:53:41;3.75;3.75;3.25
77411;PMS7003;66484;49.968;19.140;2023-05-02T08:56:12;4.75;3.75;2.25
77411;PMS7003;66484;49.968;19.140;2023-05-02T08:58:40;1.00;1.00;0.00
77411;PMS7003;66484;49.968;19.140;2023-05-02T09:01:09;4.25;4.00;3.00
77411;PMS7003;66484;49.968;19.140;2023-05-02T09:03:42;4.50;4.50;3.25
77411;PMS7003;66484;49.968;19.140;2023-05-02T09:06:12;5.00;5.00;4.50
77411;PMS7003;66484;49.968;19.140;2023-05-02T09:08:41;8.25;3.50;3.00
77411;PMS7003;66484;49.968;19.140;2023-05-02T09:11:14;3.50;3.50;3.00
77411;PMS7003;66484;49.968;19.140;2023-05-02T09:13:46;2.75;2.75;2.75
77411;PMS7003;66484;49.968;19.140;2023-05-02T09:16:16;3.00;3.00;2.25
77411;PMS7003;66484;49.968;19.140;2023-05-02T09:18:46;2.25;2.25;2.00
77411;PMS7003;66484;49.968;19.140;2023-05-02T09:21:18;4.25;4.00;3.75
77411;PMS7003;66484;49.968;19.140;2023-05-02T09:23:53;5.25;5.25;4.00
77411;PMS7003;66484;49.968;19.140;2023-05-02T09:26:22;5.25;5.25;3.75
77411;PMS7003;66484;49.968;19.140;2023-05-02T09:28:55;5.50;5.00;4.75
77411;PMS7003;66484;49.968;19.140;2023-05-02T09:31:26;4.00;4.00;3.75
77411;PMS7003;66484;49.968;19.140;2023-05-02T09:34:12;3.00;3.00;3.00
77411;PMS7003;66484;49.968;19.140;2023-05-02T09:36:48;4.00;4.00;3.00
77411;PMS7003;66484;49.968;19.140;2023-05-02T09:39:25;2.00;1.50;1.25
77411;PMS7003;66484;49.968;19.140;2023-05-02T09:41:57;4.75;3.50;1.75
77411;PMS7003;66484;49.968;19.140;2023-05-02T09:44:25;4.00;4.00;2.00
77411;PMS7003;66484;49.968;19.140;2023-05-02T09:46:54;3.00;3.00;2.00
77411;PMS7003;66484;49.968;19.140;2023-05-02T09:49:40;5.25;5.00;3.00
77411;PMS7003;66484;49.968;19.140;2023-05-02T09:52:09;4.25;3.75;2.00
77411;PMS7003;66484;49.968;19.140;2023-05-02T09:54:38;6.75;5.50;3.50
77411;PMS7003;66484;49.968;19.140;2023-05-02T09:57:06;5.75;5.75;5.00
77411;PMS7003;66484;49.968;19.140;2023-05-02T09:59:39;5.75;5.75;4.00
77411;PMS7003;66484;49.968;19.140;2023-05-02T10:02:07;5.50;5.50;4.50
77411;PMS7003;66484;49.968;19.140;2023-05-02T10:04:37;4.50;4.00;3.00
77411;PMS7003;66484;49.968;19.140;2023-05-02T10:07:06;3.25;3.25;1.25
77411;PMS7003;66484;49.968;19.140;2023-05-02T10:09:36;7.00;5.00;3.25
77411;PMS7003;66484;49.968;19.140;2023-05-02T10:12:09;5.25;5.25;4.50
77411;PMS7003;66484;49.968;19.140;2023-05-02T10:14:41;4.50;4.50;3.25
77411;PMS7003;66484;49.968;19.140;2023-05-02T10:17:27;4.75;4.50;3.00
77411;PMS7003;66484;49.968;19.140;2023-05-02T10:20:02;7.75;5.25;3.00
77411;PMS7003;66484;49.968;19.140;2023-05-02T10:22:32;5.75;5.25;4.25
77411;PMS7003;66484;49.968;19.140;2023-05-02T10:25:00;6.00;6.00;4.25
77411;PMS7003;66484;49.968;19.140;2023-05-02T10:27:29;6.50;6.50;5.25
77411;PMS7003;66484;49.968;19.140;2023-05-02T10:29:58;6.00;5.00;4.00
77411;PMS7003;66484;49.968;19.140;2023-05-02T10:32:27;5.00;5.00;4.00
77411;PMS7003;66484;49.968;19.140;2023-05-02T10:34:55;4.25;4.25;3.75
77411;PMS7003;66484;49.968;19.140;2023-05-02T10:37:24;6.25;5.00;4.00
77411;PMS7003;66484;49.968;19.140;2023-05-02T10:39:52;4.00;4.00;3.00
77411;PMS7003;66484;49.968;19.140;2023-05-02T10:42:21;6.75;5.50;4.75
77411;PMS7003;66484;49.968;19.140;2023-05-02T10:44:49;6.00;6.00;4.50
77411;PMS7003;66484;49.968;19.140;2023-05-02T10:47:21;4.75;4.75;3.75
77411;PMS7003;66484;49.968;19.140;2023-05-02T10:52:25;4.50;4.50;3.00
77411;PMS7003;66484;49.968;19.140;2023-05-02T10:55:16;6.00;6.00;4.75
77411;PMS7003;66484;49.968;19.140;2023-05-02T11:00:27;3.00;3.00;3.00
77411;PMS7003;66484;49.968;19.140;2023-05-02T11:02:56;7.25;6.00;5.00
77411;PMS7003;66484;49.968;19.140;2023-05-02T11:05:25;7.00;5.50;4.75
77411;PMS7003;66484;49.968;19.140;2023-05-02T11:10:43;5.25;4.50;3.00
77411;PMS7003;66484;49.968;19.140;2023-05-02T11:13:12;7.00;6.00;5.00
77411;PMS7003;66484;49.968;19.140;2023-05-02T11:18:15;7.00;6.00;5.50
77411;PMS7003;66484;49.968;19.140;2023-05-02T11:20:45;5.25;5.25;3.25
77411;PMS7003;66484;49.968;19.140;2023-05-02T11:25:42;6.25;6.25;5.00
77411;PMS7003;66484;49.968;19.140;2023-05-02T11:31:00;7.25;5.50;4.75
77411;PMS7003;66484;49.968;19.140;2023-05-02T11:33:31;4.25;4.25;4.00
77411;PMS7003;66484;49.968;19.140;2023-05-02T11:35:58;6.50;6.50;5.75
77411;PMS7003;66484;49.968;19.140;2023-05-02T11:38:34;7.00;7.00;6.00
77411;PMS7003;66484;49.968;19.140;2023-05-02T11:41:03;7.25;7.25;6.00
77411;PMS7003;66484;49.968;19.140;2023-05-02T11:43:31;7.75;7.75;6.25
77411;PMS7003;66484;49.968;19.140;2023-05-02T11:46:00;7.00;7.00;5.00
77411;PMS7003;66484;49.968;19.140;2023-05-02T11:48:29;8.75;7.75;6.50
77411;PMS7003;66484;49.968;19.140;2023-05-02T11:50:58;7.25;6.50;5.00
77411;PMS7003;66484;49.968;19.140;2023-05-02T11:53:31;7.00;7.00;6.00
77411;PMS7003;66484;49.968;19.140;2023-05-02T11:56:03;5.75;5.75;5.00
77411;PMS7003;66484;49.968;19.140;2023-05-02T11:58:31;6.25;5.00;4.00
77411;PMS7003;66484;49.968;19.140;2023-05-02T12:01:12;6.00;6.00;5.00
77411;PMS7003;66484;49.968;19.140;2023-05-02T12:03:43;7.00;7.00;5.00
77411;PMS7003;66484;49.968;19.140;2023-05-02T12:06:15;6.50;5.50;5.25
77411;PMS7003;66484;49.968;19.140;2023-05-02T12:08:47;5.75;4.75;2.50
77411;PMS7003;66484;49.968;19.140;2023-05-02T12:11:15;5.25;4.00;3.25
77411;PMS7003;66484;49.968;19.140;2023-05-02T12:13:44;5.00;5.00;4.25
77411;PMS7003;66484;49.968;19.140;2023-05-02T12:16:13;8.25;7.25;7.00
77411;PMS7003;66484;49.968;19.140;2023-05-02T12:18:41;9.00;9.00;7.25
77411;PMS7003;66484;49.968;19.140;2023-05-02T12:21:09;8.75;7.75;6.50
77411;PMS7003;66484;49.968;19.140;2023-05-02T12:23:38;4.25;3.50;2.75
77411;PMS7003;66484;49.968;19.140;2023-05-02T12:29:03;5.50;5.50;5.00
77411;PMS7003;66484;49.968;19.140;2023-05-02T12:31:33;9.00;8.00;4.25
77411;PMS7003;66484;49.968;19.140;2023-05-02T12:34:01;9.50;9.50;7.25
77411;PMS7003;66484;49.968;19.140;2023-05-02T12:36:29;12.50;10.00;7.00
77411;PMS7003;66484;49.968;19.140;2023-05-02T12:39:01;8.25;8.25;6.00
77411;PMS7003;66484;49.968;19.140;2023-05-02T12:43:59;6.25;6.25;5.50
77411;PMS7003;66484;49.968;19.140;2023-05-02T12:46:26;9.50;9.50;7.75
77411;PMS7003;66484;49.968;19.140;2023-05-02T12:49:04;11.00;9.25;7.25
77411;PMS7003;66484;49.968;19.140;2023-05-02T12:51:34;9.50;9.50;8.00
77411;PMS7003;66484;49.968;19.140;2023-05-02T12:54:03;13.75;13.00;9.50
77411;PMS7003;66484;49.968;19.140;2023-05-02T12:56:40;12.25;12.00;10.00
77411;PMS7003;66484;49.968;19.140;2023-05-02T12:59:10;12.25;10.25;7.50
77411;PMS7003;66484;49.968;19.140;2023-05-02T13:01:52;13.75;13.75;11.25
77411;PMS7003;66484;49.968;19.140;2023-05-02T13:04:21;10.25;10.25;8.00
77411;PMS7003;66484;49.968;19.140;2023-05-02T13:07:00;16.00;14.75;10.75
77411;PMS7003;66484;49.968;19.140;2023-05-02T13:09:28;14.00;14.00;12.00
77411;PMS7003;66484;49.968;19.140;2023-05-02T13:11:56;14.00;12.50;10.75
77411;PMS7003;66484;49.968;19.140;2023-05-02T13:14:25;13.00;13.00;10.50
77411;PMS7003;66484;49.968;19.140;2023-05-02T13:16:52;15.25;15.25;12.00
77411;PMS7003;66484;49.968;19.140;2023-05-02T13:19:21;16.75;14.75;10.25
77411;PMS7003;66484;49.968;19.140;2023-05-02T13:21:49;15.50;15.50;9.00
77411;PMS7003;66484;49.968;19.140;2023-05-02T13:24:17;14.25;13.25;10.50
77411;PMS7003;66484;49.968;19.140;2023-05-02T13:26:45;12.50;12.50;10.00
77411;PMS7003;66484;49.968;19.140;2023-05-02T13:29:13;12.00;12.00;9.50
77411;PMS7003;66484;49.968;19.140;2023-05-02T13:31:40;13.75;12.00;10.00
77411;PMS7003;66484;49.968;19.140;2023-05-02T13:34:08;16.50;15.25;11.00
77411;PMS7003;66484;49.968;19.140;2023-05-02T13:36:36;16.00;16.00;15.00
77411;PMS7003;66484;49.968;19.140;2023-05-02T13:39:12;15.75;14.25;11.75
77411;PMS7003;66484;49.968;19.140;2023-05-02T13:41:40;18.25;18.25;13.00
77411;PMS7003;66484;49.968;19.140;2023-05-02T13:44:07;10.25;10.25;4.75
77411;PMS7003;66484;49.968;19.140;2023-05-02T13:46:35;16.25;16.25;12.25
77411;PMS7003;66484;49.968;19.140;2023-05-02T13:49:04;15.25;15.00;12.00
77411;PMS7003;66484;49.968;19.140;2023-05-02T13:51:32;14.25;14.25;11.50
77411;PMS7003;66484;49.968;19.140;2023-05-02T13:54:00;15.50;15.50;11.75
77411;PMS7003;66484;49.968;19.140;2023-05-02T13:56:28;16.75;14.75;12.00
77411;PMS7003;66484;49.968;19.140;2023-05-02T13:58:55;17.25;15.25;11.75
77411;PMS7003;66484;49.968;19.140;2023-05-02T14:01:22;14.00;14.00;10.75
77411;PMS7003;66484;49.968;19.140;2023-05-02T14:03:53;14.75;13.50;11.00
77411;PMS7003;66484;49.968;19.140;2023-05-02T14:06:20;14.00;11.50;8.50
77411;PMS7003;66484;49.968;19.140;2023-05-02T14:08:48;14.25;14.25;10.00
77411;PMS7003;66484;49.968;19.140;2023-05-02T14:11:16;19.25;17.00;13.75
77411;PMS7003;66484;49.968;19.140;2023-05-02T14:13:44;14.75;14.50;11.00
77411;PMS7003;66484;49.968;19.140;2023-05-02T14:16:12;14.75;14.00;10.50
77411;PMS7003;66484;49.968;19.140;2023-05-02T14:18:39;13.25;13.25;12.25
77411;PMS7003;66484;49.968;19.140;2023-05-02T14:21:06;11.25;11.25;8.00
77411;PMS7003;66484;49.968;19.140;2023-05-02T14:23:34;12.25;12.25;9.75
77411;PMS7003;66484;49.968;19.140;2023-05-02T14:26:01;9.75;9.75;7.75
77411;PMS7003;66484;49.968;19.140;2023-05-02T14:28:29;14.00;14.00;10.25
77411;PMS7003;66484;49.968;19.140;2023-05-02T14:30:57;16.50;12.25;10.25
77411;PMS7003;66484;49.968;19.140;2023-05-02T14:33:25;19.50;18.00;12.00
77411;PMS7003;66484;49.968;19.140;2023-05-02T14:35:52;10.75;10.75;9.25
77411;PMS7003;66484;49.968;19.140;2023-05-02T14:38:20;13.67;12.33;10.00
77411;PMS7003;66484;49.968;19.140;2023-05-02T14:40:47;13.33;12.33;10.33
77411;PMS7003;66484;49.968;19.140;2023-05-02T14:43:14;14.00;12.00;10.00
77411;PMS7003;66484;49.968;19.140;2023-05-02T14:45:42;12.33;10.33;9.33
77411;PMS7003;66484;49.968;19.140;2023-05-02T14:48:10;11.33;11.33;8.67
77411;PMS7003;66484;49.968;19.140;2023-05-02T14:50:40;17.67;16.67;10.33
77411;PMS7003;66484;49.968;19.140;2023-05-02T14:53:07;13.67;12.33;10.00
77411;PMS7003;66484;49.968;19.140;2023-05-02T14:55:35;17.33;16.33;11.00
77411;PMS7003;66484;49.968;19.140;2023-05-02T14:58:04;11.00;11.00;9.00
77411;PMS7003;66484;49.968;19.140;2023-05-02T15:00:33;13.67;12.00;9.00